DAL511 KDFW-KATL
Flight info
| Callsign | DAL511 |
|---|---|
| Flight time | N/A |
| Altitude | 37000 |
| Route | TRYTN4 LOOSE MEMFS HUTCC KNSAW RUSSA GLAVN2 |
| Aircraft | A346/H-SDE2E3FGHIJ3J4J5M1RWXY/LB1D1 |
Departure
| Time | 2026-05-05 01:44 |
|---|---|
| Airport | Dallas Fort Worth International Airport (KDFW) |
Arrival
| Time | N/A |
|---|---|
| Airport | Hartsfield Jackson Atlanta International Airport (KATL) |
| Time | Latitude | Longitude | Altitude | Speed | Heading |
|---|---|---|---|---|---|
| 2026-05-05 01:20 | 32.89136 | -97.03493 | 624 ft | 0 kts | 249° |
| 2026-05-05 01:35 | 32.89144 | -97.03468 | 633 ft | 0 kts | 249° |
| 2026-05-05 01:35 | 32.89154 | -97.03437 | 624 ft | 0 kts | 249° |
| 2026-05-05 01:35 | 32.89165 | -97.03404 | 624 ft | 0 kts | 249° |
| 2026-05-05 01:35 | 32.89169 | -97.03391 | 624 ft | 0 kts | 249° |
| 2026-05-05 01:37 | 32.89168 | -97.03394 | 624 ft | 1 kts | 249° |
| 2026-05-05 01:37 | 32.89163 | -97.03413 | 624 ft | 3 kts | 263° |
| 2026-05-05 01:38 | 32.89176 | -97.03446 | 624 ft | 5 kts | 324° |
| 2026-05-05 01:38 | 32.89222 | -97.03483 | 624 ft | 8 kts | 323° |
| 2026-05-05 01:38 | 32.89285 | -97.03541 | 624 ft | 11 kts | 323° |
| 2026-05-05 01:38 | 32.89377 | -97.03573 | 630 ft | 13 kts | 356° |
| 2026-05-05 01:39 | 32.89486 | -97.03553 | 631 ft | 15 kts | 29° |
| 2026-05-05 01:39 | 32.89550 | -97.03438 | 634 ft | 16 kts | 85° |
| 2026-05-05 01:39 | 32.89601 | -97.03283 | 624 ft | 19 kts | 72° |
| 2026-05-05 01:39 | 32.89695 | -97.03195 | 630 ft | 19 kts | 5° |
| 2026-05-05 01:40 | 32.89843 | -97.03194 | 632 ft | 21 kts | 359° |
| 2026-05-05 01:40 | 32.90007 | -97.03193 | 634 ft | 22 kts | 359° |
| 2026-05-05 01:40 | 32.90196 | -97.03191 | 624 ft | 24 kts | 1° |
| 2026-05-05 01:40 | 32.90421 | -97.03186 | 624 ft | 26 kts | 1° |
| 2026-05-05 01:41 | 32.90675 | -97.03184 | 624 ft | 27 kts | 359° |
| 2026-05-05 01:41 | 32.90923 | -97.03182 | 631 ft | 28 kts | 359° |
| 2026-05-05 01:41 | 32.91122 | -97.03186 | 630 ft | 29 kts | 359° |
| 2026-05-05 01:41 | 32.91330 | -97.03187 | 636 ft | 26 kts | 359° |
| 2026-05-05 01:42 | 32.91471 | -97.03188 | 624 ft | 0 kts | 359° |
| 2026-05-05 01:42 | 32.91474 | -97.03188 | 624 ft | 1 kts | 359° |
| 2026-05-05 01:42 | 32.91497 | -97.03187 | 631 ft | 6 kts | 6° |
| 2026-05-05 01:42 | 32.91543 | -97.03157 | 633 ft | 9 kts | 51° |
| 2026-05-05 01:43 | 32.91562 | -97.03066 | 624 ft | 11 kts | 93° |
| 2026-05-05 01:43 | 32.91492 | -97.02991 | 624 ft | 13 kts | 171° |
| 2026-05-05 01:43 | 32.91387 | -97.02990 | 634 ft | 15 kts | 181° |
| 2026-05-05 01:43 | 32.90952 | -97.02994 | 630 ft | 101 kts | 180° |
| 2026-05-05 01:44 | 32.89755 | -97.03001 | 628 ft | 179 kts | 180° |
| 2026-05-05 01:44 | 32.88171 | -97.02987 | 1266 ft | 200 kts | 179° |
| 2026-05-05 01:44 | 32.86798 | -97.02960 | 2175 ft | 191 kts | 179° |
| 2026-05-05 01:44 | 32.85355 | -97.02908 | 2850 ft | 197 kts | 175° |
| 2026-05-05 01:45 | 32.83946 | -97.02449 | 3374 ft | 216 kts | 161° |
| 2026-05-05 01:45 | 32.82499 | -97.01685 | 3889 ft | 233 kts | 159° |
| 2026-05-05 01:45 | 32.80762 | -97.00764 | 4489 ft | 251 kts | 160° |
| 2026-05-05 01:45 | 32.79147 | -96.99845 | 5046 ft | 264 kts | 149° |
| 2026-05-05 01:46 | 32.77747 | -96.97986 | 5979 ft | 277 kts | 122° |
| 2026-05-05 01:46 | 32.76893 | -96.95411 | 7065 ft | 284 kts | 112° |
| 2026-05-05 01:46 | 32.76481 | -96.92857 | 7798 ft | 298 kts | 98° |
| 2026-05-05 01:46 | 32.76512 | -96.89712 | 8642 ft | 308 kts | 90° |
| 2026-05-05 01:47 | 32.76656 | -96.87124 | 9315 ft | 313 kts | 89° |
| 2026-05-05 01:47 | 32.76836 | -96.84279 | 9980 ft | 319 kts | 84° |
| 2026-05-05 01:47 | 32.77239 | -96.81569 | 10626 ft | 324 kts | 76° |